Time;durP1;ratioP1;P1;durP2;ratioP2;P2;SDS_P1;SDS_P2;PMS_P1;PMS_P2;Temp;Humidity;BMP_temperature;BMP_pressure;BME280_temperature;BME280_humidity;BME280_pressure;Samples;Min_cycle;Max_cycle;Signal;HPM_P1;HPM_P2
2022/04/03 00:00:15;;;;;;;0.50;0.40;;;2.00;99.90;;;;;;5049708;28;20220;-77
2022/04/03 00:02:42;;;;;;;0.50;0.40;;;2.00;99.90;;;;;;5050627;28;20665;-74
2022/04/03 00:05:09;;;;;;;0.50;0.40;;;2.00;99.90;;;;;;5050558;28;20662;-76
2022/04/03 00:07:36;;;;;;;0.50;0.50;;;1.90;99.90;;;;;;5051593;28;20229;-76
2022/04/03 00:10:03;;;;;;;0.50;0.50;;;1.90;99.90;;;;;;5053599;28;20223;-76
2022/04/03 00:12:30;;;;;;;0.50;0.50;;;1.90;99.90;;;;;;5053754;28;20192;-73
2022/04/03 00:14:58;;;;;;;0.50;0.50;;;1.90;99.90;;;;;;5054486;28;20200;-76
2022/04/03 00:17:24;;;;;;;0.50;0.50;;;1.80;99.90;;;;;;5054014;28;20204;-76
2022/04/03 00:19:51;;;;;;;0.50;0.50;;;1.80;99.90;;;;;;5053345;28;20223;-76
2022/04/03 00:22:18;;;;;;;0.50;0.50;;;1.70;99.90;;;;;;5053944;28;20196;-76
2022/04/03 00:24:44;;;;;;;0.50;0.40;;;1.70;99.90;;;;;;5053622;28;20203;-78
2022/04/03 00:27:11;;;;;;;0.50;0.43;;;1.60;99.90;;;;;;5054312;28;20204;-76
2022/04/03 00:29:38;;;;;;;0.50;0.40;;;1.60;99.90;;;;;;5053062;28;20218;-76
2022/04/03 00:32:07;;;;;;;0.50;0.50;;;1.50;99.90;;;;;;5052133;28;20291;-76
2022/04/03 00:34:34;;;;;;;0.50;0.50;;;1.50;99.90;;;;;;5054401;28;20552;-76
2022/04/03 00:37:00;;;;;;;0.50;0.45;;;1.50;99.90;;;;;;5053515;28;20213;-76
2022/04/03 00:39:27;;;;;;;0.50;0.50;;;1.50;99.90;;;;;;5052732;28;20202;-76
2022/04/03 00:41:55;;;;;;;0.50;0.50;;;1.40;99.90;;;;;;5053669;28;20198;-77
2022/04/03 00:44:22;;;;;;;0.50;0.40;;;1.40;99.90;;;;;;5053774;28;20204;-76
2022/04/03 00:46:48;;;;;;;0.60;0.50;;;1.40;99.90;;;;;;5053433;28;20203;-73
2022/04/03 00:49:16;;;;;;;0.50;0.50;;;1.40;99.90;;;;;;5052810;28;20215;-77
2022/04/03 00:51:43;;;;;;;0.50;0.50;;;1.40;99.90;;;;;;5053382;28;20406;-76
2022/04/03 00:54:10;;;;;;;0.75;0.75;;;1.40;99.90;;;;;;5053537;28;20193;-76
2022/04/03 00:56:37;;;;;;;0.50;0.50;;;1.40;99.90;;;;;;5053370;28;20197;-76
2022/04/03 00:59:04;;;;;;;0.50;0.50;;;1.40;99.90;;;;;;5052403;28;20193;-76
2022/04/03 01:01:30;;;;;;;0.50;0.50;;;1.30;99.90;;;;;;5052500;28;20274;-74
2022/04/03 01:03:57;;;;;;;0.50;0.50;;;1.30;99.90;;;;;;5053355;28;20198;-77
2022/04/03 01:06:25;;;;;;;0.50;0.50;;;1.30;99.90;;;;;;5053394;28;20690;-76
2022/04/03 01:08:52;;;;;;;0.50;0.50;;;1.20;99.90;;;;;;5052393;28;20223;-75
2022/04/03 01:11:22;;;;;;;0.50;0.50;;;1.20;99.90;;;;;;5052914;28;20583;-76
2022/04/03 01:13:50;;;;;;;0.50;0.40;;;1.10;99.90;;;;;;5053281;28;20607;-75
2022/04/03 01:16:17;;;;;;;0.50;0.40;;;1.20;99.90;;;;;;5052535;28;20203;-76
2022/04/03 01:18:44;;;;;;;0.50;0.50;;;1.10;99.90;;;;;;5051946;28;20200;-75
2022/04/03 01:21:11;;;;;;;0.50;0.50;;;1.00;99.90;;;;;;5052728;28;20222;-76
2022/04/03 01:23:40;;;;;;;0.50;0.50;;;1.00;99.90;;;;;;5052625;28;20241;-76
2022/04/03 01:26:08;;;;;;;0.50;0.45;;;1.00;99.90;;;;;;5052867;28;20201;-76
2022/04/03 01:28:35;;;;;;;0.50;0.50;;;0.90;99.90;;;;;;5052395;28;20215;-77
2022/04/03 01:31:01;;;;;;;0.50;0.50;;;1.00;99.90;;;;;;5051978;28;20215;-76
2022/04/03 01:33:28;;;;;;;0.50;0.50;;;1.00;99.90;;;;;;5050813;28;20202;-75
2022/04/03 01:35:55;;;;;;;0.50;0.40;;;1.00;99.90;;;;;;5052705;28;20199;-77
2022/04/03 01:38:22;;;;;;;0.50;0.50;;;1.00;99.90;;;;;;5052414;28;20193;-76
2022/04/03 01:40:49;;;;;;;0.50;0.50;;;0.90;99.90;;;;;;5051694;28;20221;-76
2022/04/03 01:43:17;;;;;;;3.17;2.47;;;0.90;99.90;;;;;;5052282;28;20193;-76
2022/04/03 01:45:43;;;;;;;0.50;0.40;;;0.80;99.90;;;;;;5052772;28;20599;-76
2022/04/03 01:48:11;;;;;;;0.50;0.47;;;0.80;99.90;;;;;;5052506;28;20216;-76
2022/04/03 01:50:38;;;;;;;0.50;0.50;;;0.80;99.90;;;;;;5051772;28;20273;-76
2022/04/03 01:53:05;;;;;;;0.50;0.50;;;0.80;99.90;;;;;;5051792;28;20630;-76
2022/04/03 01:55:32;;;;;;;0.50;0.40;;;0.80;99.90;;;;;;5052526;28;20200;-75
2022/04/03 01:58:00;;;;;;;0.50;0.50;;;0.80;99.90;;;;;;5052540;28;20220;-76
2022/04/03 02:00:28;;;;;;;0.50;0.47;;;0.80;99.90;;;;;;5050824;28;20228;-76
2022/04/03 02:02:55;;;;;;;0.50;0.47;;;0.80;99.90;;;;;;5051701;28;20190;-77
2022/04/03 02:05:22;;;;;;;0.50;0.45;;;0.70;99.90;;;;;;5052085;28;20203;-76
2022/04/03 02:07:49;;;;;;;0.50;0.50;;;0.70;99.90;;;;;;5052175;28;20231;-76
2022/04/03 02:10:16;;;;;;;0.50;0.50;;;0.60;99.90;;;;;;5051403;28;20211;-77
2022/04/03 02:12:43;;;;;;;0.50;0.50;;;0.60;99.90;;;;;;5051990;28;20208;-76
2022/04/03 02:15:11;;;;;;;0.50;0.50;;;0.60;99.90;;;;;;5051446;28;20253;-76
2022/04/03 02:17:40;;;;;;;0.50;0.45;;;0.60;99.90;;;;;;5051988;28;20242;-76
2022/04/03 02:20:09;;;;;;;0.50;0.50;;;0.60;99.90;;;;;;5051337;28;20220;-76
2022/04/03 02:22:35;;;;;;;0.50;0.50;;;0.60;99.90;;;;;;5051887;28;20200;-74
2022/04/03 02:25:03;;;;;;;0.50;0.47;;;0.50;99.90;;;;;;5051611;28;20230;-76
2022/04/03 02:27:30;;;;;;;0.50;0.50;;;0.40;99.90;;;;;;5051394;28;20195;-76
2022/04/03 02:29:57;;;;;;;0.75;0.75;;;0.40;99.90;;;;;;5050469;28;20308;-76
2022/04/03 02:32:25;;;;;;;0.50;0.50;;;0.50;99.90;;;;;;5049808;28;20192;-76
2022/04/03 02:34:53;;;;;;;0.50;0.50;;;0.50;99.90;;;;;;5051479;28;20232;-76
2022/04/03 02:37:20;;;;;;;0.50;0.50;;;0.40;99.90;;;;;;5051374;28;20200;-78
2022/04/03 02:39:46;;;;;;;4.80;0.95;;;0.40;99.90;;;;;;5050742;28;20188;-77
2022/04/03 02:42:13;;;;;;;0.50;0.50;;;0.30;99.90;;;;;;5051070;28;20202;-76
2022/04/03 02:44:40;;;;;;;0.50;0.40;;;0.20;99.90;;;;;;5051697;28;20199;-74
2022/04/03 02:47:07;;;;;;;0.50;0.50;;;0.10;99.90;;;;;;5051276;28;20195;-76
2022/04/03 02:49:34;;;;;;;0.50;0.50;;;0.10;99.90;;;;;;5050319;28;20615;-77
2022/04/03 02:52:03;;;;;;;0.50;0.40;;;0.00;99.90;;;;;;5051346;28;20196;-77
2022/04/03 02:54:30;;;;;;;0.50;0.40;;;-0.10;99.90;;;;;;5051063;28;20191;-74
2022/04/03 02:56:57;;;;;;;0.50;0.50;;;-0.20;99.90;;;;;;5051321;28;20198;-77
2022/04/03 02:59:24;;;;;;;0.50;0.40;;;-0.30;99.90;;;;;;5050440;28;20660;-76
2022/04/03 03:01:51;;;;;;;0.50;0.50;;;-0.30;99.90;;;;;;5050962;28;20241;-78
2022/04/03 03:04:17;;;;;;;0.50;0.40;;;-0.40;99.90;;;;;;5052162;28;20203;-76
2022/04/03 03:06:44;;;;;;;0.50;0.50;;;-0.50;99.90;;;;;;5051157;28;20204;-76
2022/04/03 03:09:12;;;;;;;0.50;0.50;;;-0.60;99.90;;;;;;5050371;28;20218;-76
2022/04/03 03:11:39;;;;;;;0.50;0.50;;;-0.70;99.90;;;;;;5051108;28;20218;-76
2022/04/03 03:14:06;;;;;;;0.50;0.50;;;-0.70;99.90;;;;;;5050990;28;20230;-77
2022/04/03 03:16:33;;;;;;;0.50;0.50;;;-0.70;99.90;;;;;;5051130;28;20198;-73
2022/04/03 03:18:59;;;;;;;0.50;0.50;;;-0.80;99.90;;;;;;5050502;28;20192;-76
2022/04/03 03:21:26;;;;;;;0.50;0.50;;;-0.80;99.90;;;;;;5050697;28;20228;-76
2022/04/03 03:23:53;;;;;;;0.50;0.50;;;-0.90;99.90;;;;;;5051042;28;20198;-76
2022/04/03 03:26:21;;;;;;;0.50;0.50;;;-0.90;99.90;;;;;;5051024;28;20195;-76
2022/04/03 03:28:48;;;;;;;0.50;0.50;;;-0.80;99.90;;;;;;5050033;28;20221;-74
2022/04/03 03:31:15;;;;;;;0.50;0.50;;;-0.90;99.90;;;;;;5050817;28;20245;-75
2022/04/03 03:33:42;;;;;;;0.50;0.50;;;-1.00;99.90;;;;;;5049085;28;20250;-76
2022/04/03 03:36:09;;;;;;;1.02;1.02;;;-1.00;99.90;;;;;;5050779;28;20229;-76
2022/04/03 03:38:37;;;;;;;0.50;0.50;;;-1.10;99.90;;;;;;5050680;28;20668;-75
2022/04/03 03:41:04;;;;;;;0.50;0.50;;;-1.10;99.90;;;;;;5050377;28;20221;-76
2022/04/03 03:43:32;;;;;;;0.50;0.40;;;-1.20;99.90;;;;;;5054052;28;20228;-76
2022/04/03 03:45:59;;;;;;;0.50;0.50;;;-1.20;99.90;;;;;;5054292;28;20194;-76
2022/04/03 03:48:26;;;;;;;0.50;0.50;;;-1.10;99.90;;;;;;5054390;28;20209;-76
2022/04/03 03:50:54;;;;;;;0.50;0.50;;;-1.20;99.90;;;;;;5054178;28;20225;-77
2022/04/03 03:53:21;;;;;;;0.50;0.50;;;-1.20;99.90;;;;;;5054733;28;20205;-76
2022/04/03 03:55:49;;;;;;;0.50;0.50;;;-1.20;99.90;;;;;;5054702;28;20217;-76
2022/04/03 03:58:16;;;;;;;0.50;0.50;;;-1.20;99.90;;;;;;5054105;28;20718;-76
2022/04/03 04:00:44;;;;;;;0.50;0.50;;;-1.30;99.90;;;;;;5053098;28;20226;-76
2022/04/03 04:03:11;;;;;;;0.50;0.50;;;-1.30;99.90;;;;;;5054680;28;20607;-76
2022/04/03 04:05:37;;;;;;;0.50;0.50;;;-1.30;99.90;;;;;;5054548;28;20567;-75
2022/04/03 04:08:05;;;;;;;0.50;0.50;;;-1.40;99.90;;;;;;5054220;28;20203;-76
2022/04/03 04:10:31;;;;;;;0.70;0.70;;;-1.30;99.90;;;;;;5053223;28;20250;-72
2022/04/03 04:12:58;;;;;;;0.50;0.50;;;-1.30;99.90;;;;;;5054326;28;20207;-76
2022/04/03 04:15:25;;;;;;;0.50;0.50;;;-1.30;99.90;;;;;;5053890;28;20193;-76
2022/04/03 04:17:55;;;;;;;1.60;1.13;;;-1.40;99.90;;;;;;5054554;28;20206;-76
2022/04/03 04:20:22;;;;;;;0.50;0.50;;;-1.40;99.90;;;;;;5053120;28;20242;-77
2022/04/03 04:22:51;;;;;;;1.13;1.08;;;-1.40;99.90;;;;;;5054074;28;20199;-76
2022/04/03 04:25:19;;;;;;;0.50;0.47;;;-1.50;99.90;;;;;;5054046;28;20584;-77
2022/04/03 04:27:47;;;;;;;0.50;0.50;;;-1.50;99.90;;;;;;5053708;28;20202;-75
2022/04/03 04:30:15;;;;;;;0.50;0.40;;;-1.50;99.90;;;;;;5052545;28;20700;-76
2022/04/03 04:32:43;;;;;;;0.50;0.50;;;-1.50;99.90;;;;;;5052124;28;20191;-76
2022/04/03 04:35:13;;;;;;;0.50;0.50;;;-1.50;99.90;;;;;;5053599;28;20739;-76
2022/04/03 04:37:40;;;;;;;0.50;0.50;;;-1.60;99.90;;;;;;5053472;28;20200;-76
2022/04/03 04:40:09;;;;;;;0.70;0.70;;;-1.80;99.90;;;;;;5052816;28;20221;-76
2022/04/03 04:42:35;;;;;;;0.50;0.50;;;-1.80;99.90;;;;;;5053733;28;20194;-76
2022/04/03 04:45:03;;;;;;;0.50;0.50;;;-1.80;99.90;;;;;;5053580;28;20202;-76
2022/04/03 04:47:34;;;;;;;0.50;0.47;;;-1.80;99.90;;;;;;5053554;28;20195;-76
2022/04/03 04:50:01;;;;;;;0.50;0.50;;;-1.80;99.90;;;;;;5052376;28;20253;-76
2022/04/03 04:52:30;;;;;;;0.50;0.40;;;-1.80;99.90;;;;;;5053330;28;20203;-76
2022/04/03 04:54:56;;;;;;;0.50;0.50;;;-1.80;99.90;;;;;;5051883;28;20664;-76
2022/04/03 04:57:23;;;;;;;0.60;0.60;;;-1.80;99.90;;;;;;5053416;28;20214;-76
2022/04/03 04:59:50;;;;;;;0.50;0.50;;;-1.80;99.90;;;;;;5052481;28;20233;-76
2022/04/03 05:02:16;;;;;;;0.50;0.50;;;-1.70;99.90;;;;;;5053616;28;20217;-75
2022/04/03 05:04:43;;;;;;;0.50;0.45;;;-1.60;99.90;;;;;;5053034;28;20202;-76
2022/04/03 05:07:10;;;;;;;1.27;1.20;;;-1.60;99.90;;;;;;5052882;28;20198;-76
2022/04/03 05:09:39;;;;;;;0.50;0.50;;;-1.60;99.90;;;;;;5052167;28;20222;-75
2022/04/03 05:12:07;;;;;;;0.50;0.50;;;-1.60;99.90;;;;;;5053368;28;20200;-75
2022/04/03 05:14:33;;;;;;;0.50;0.50;;;-1.60;99.90;;;;;;5053318;28;20190;-75
2022/04/03 05:17:00;;;;;;;0.50;0.50;;;-1.60;99.90;;;;;;5052789;28;20198;-76
2022/04/03 05:19:27;;;;;;;1.00;1.00;;;-1.60;99.90;;;;;;5051769;28;20686;-75
2022/04/03 05:21:54;;;;;;;0.50;0.50;;;-1.60;99.90;;;;;;5052923;28;20219;-75
2022/04/03 05:24:21;;;;;;;0.50;0.50;;;-1.50;99.90;;;;;;5052819;28;20198;-75
2022/04/03 05:26:50;;;;;;;0.50;0.50;;;-1.50;99.90;;;;;;5052791;28;20282;-74
2022/04/03 05:29:17;;;;;;;0.50;0.50;;;-1.40;99.90;;;;;;5051729;28;20747;-75
2022/04/03 05:31:44;;;;;;;0.50;0.40;;;-1.30;99.90;;;;;;5051610;28;20226;-75
2022/04/03 05:34:10;;;;;;;0.50;0.40;;;-1.20;99.90;;;;;;5052800;28;20206;-75
2022/04/03 05:36:37;;;;;;;0.50;0.50;;;-1.20;99.90;;;;;;5052933;28;20198;-75
2022/04/03 05:39:05;;;;;;;0.50;0.50;;;-1.10;99.90;;;;;;5051929;28;20210;-75
2022/04/03 05:41:32;;;;;;;0.50;0.50;;;-1.00;99.90;;;;;;5052360;28;20716;-75
2022/04/03 05:44:01;;;;;;;0.50;0.50;;;-1.00;99.90;;;;;;5052290;28;20258;-75
2022/04/03 05:46:28;;;;;;;0.50;0.50;;;-0.90;99.90;;;;;;5053135;28;20202;-75
2022/04/03 05:48:55;;;;;;;0.60;0.60;;;-0.70;99.90;;;;;;5051800;28;20603;-75
2022/04/03 05:51:21;;;;;;;0.50;0.50;;;-0.20;99.90;;;;;;5052322;28;20588;-75
2022/04/03 05:53:48;;;;;;;0.50;0.50;;;0.20;99.90;;;;;;5051970;28;20206;-75
2022/04/03 05:56:15;;;;;;;0.50;0.50;;;1.00;99.90;;;;;;5052100;28;20207;-76
2022/04/03 05:58:41;;;;;;;0.50;0.50;;;2.10;99.90;;;;;;5052355;28;20216;-75
2022/04/03 06:01:09;;;;;;;0.50;0.50;;;3.50;99.90;;;;;;5050981;28;20224;-75
2022/04/03 06:03:36;;;;;;;0.50;0.43;;;5.00;99.90;;;;;;5051874;28;20200;-72
2022/04/03 06:06:03;;;;;;;0.50;0.50;;;6.50;99.90;;;;;;5051919;28;20576;-76
2022/04/03 06:08:29;;;;;;;0.50;0.50;;;7.90;99.90;;;;;;5051524;28;20224;-76
2022/04/03 06:10:56;;;;;;;0.50;0.40;;;9.10;99.90;;;;;;5051323;28;20234;-75
2022/04/03 06:13:25;;;;;;;0.50;0.40;;;10.30;97.80;;;;;;5052083;28;20196;-76
2022/04/03 06:15:51;;;;;;;0.50;0.40;;;11.30;91.50;;;;;;5051419;28;20221;-76
2022/04/03 06:18:20;;;;;;;0.50;0.40;;;12.30;82.50;;;;;;5051644;28;20198;-76
2022/04/03 06:20:48;;;;;;;0.57;0.57;;;13.20;74.60;;;;;;5051038;28;20249;-75
2022/04/03 06:23:17;;;;;;;0.50;0.40;;;14.10;71.30;;;;;;5051969;28;20218;-76
2022/04/03 06:25:45;;;;;;;0.50;0.40;;;15.00;69.70;;;;;;5051781;28;20202;-77
2022/04/03 06:28:12;;;;;;;0.50;0.40;;;15.90;65.10;;;;;;5051708;28;20441;-76
2022/04/03 06:30:39;;;;;;;0.50;0.40;;;16.70;63.60;;;;;;5050458;28;20488;-76
2022/04/03 06:33:06;;;;;;;0.50;0.40;;;17.20;59.30;;;;;;5050946;28;20474;-76
2022/04/03 06:35:34;;;;;;;0.50;0.40;;;17.60;55.10;;;;;;5051776;28;20815;-76
2022/04/03 06:38:01;;;;;;;0.50;0.40;;;17.90;55.00;;;;;;5051543;28;20437;-76
2022/04/03 06:40:28;;;;;;;0.73;0.60;;;18.40;51.40;;;;;;5050782;28;20453;-76
2022/04/03 06:42:56;;;;;;;0.50;0.40;;;18.30;50.00;;;;;;5051669;28;20443;-76
2022/04/03 06:45:24;;;;;;;0.50;0.30;;;18.60;49.80;;;;;;5051403;28;20440;-76
2022/04/03 06:47:50;;;;;;;0.50;0.40;;;19.20;49.70;;;;;;5051710;28;20437;-76
2022/04/03 06:50:17;;;;;;;0.50;0.30;;;19.20;48.90;;;;;;5050118;28;20484;-75
2022/04/03 06:52:46;;;;;;;3.00;1.70;;;19.10;49.30;;;;;;5051020;28;20440;-76
2022/04/03 06:55:13;;;;;;;0.50;0.40;;;19.20;47.50;;;;;;5051551;28;20448;-76
2022/04/03 06:57:40;;;;;;;0.50;0.30;;;19.60;47.30;;;;;;5051510;28;20441;-76
2022/04/03 07:00:08;;;;;;;0.60;0.60;;;19.70;48.40;;;;;;5049842;28;20966;-73
2022/04/03 07:02:35;;;;;;;0.50;0.40;;;20.50;44.90;;;;;;5051873;28;20575;-73
2022/04/03 07:05:02;;;;;;;0.50;0.50;;;20.70;43.90;;;;;;5052580;28;20437;-76
2022/04/03 07:07:29;;;;;;;0.50;0.40;;;21.00;45.10;;;;;;5051482;28;20930;-76
2022/04/03 07:09:57;;;;;;;0.50;0.40;;;21.40;43.40;;;;;;5050361;28;20481;-76
2022/04/03 07:12:24;;;;;;;0.50;0.30;;;21.70;43.40;;;;;;5050936;28;20441;-76
2022/04/03 07:14:51;;;;;;;0.50;0.40;;;21.80;41.80;;;;;;5050988;28;20437;-76
2022/04/03 07:17:18;;;;;;;0.50;0.40;;;21.90;41.00;;;;;;5052066;28;20441;-76
2022/04/03 07:19:45;;;;;;;0.50;0.40;;;21.40;42.00;;;;;;5054563;28;20500;-76
2022/04/03 07:22:11;;;;;;;2.30;1.33;;;21.80;41.40;;;;;;5055119;28;20436;-75
2022/04/03 07:24:38;;;;;;;1.13;0.60;;;22.30;40.90;;;;;;5055282;28;20449;-74
2022/04/03 07:27:07;;;;;;;0.50;0.40;;;22.30;39.80;;;;;;5055032;28;20464;-76
2022/04/03 07:29:34;;;;;;;0.50;0.40;;;22.60;40.70;;;;;;5054063;28;20946;-75
2022/04/03 07:32:01;;;;;;;0.53;0.40;;;23.00;40.70;;;;;;5053508;28;20514;-76
2022/04/03 07:34:28;;;;;;;0.77;0.77;;;23.60;39.80;;;;;;5054659;28;20437;-76
2022/04/03 07:36:56;;;;;;;0.50;0.30;;;23.20;39.70;;;;;;5054496;28;21008;-76
2022/04/03 07:39:23;;;;;;;0.50;0.30;;;23.20;39.90;;;;;;5054079;28;20934;-76
2022/04/03 07:41:50;;;;;;;0.50;0.40;;;23.90;39.50;;;;;;5054589;28;20464;-75
2022/04/03 07:44:18;;;;;;;1.27;1.27;;;24.90;39.50;;;;;;5054762;28;21001;-76
2022/04/03 07:46:45;;;;;;;0.50;0.30;;;25.60;38.20;;;;;;5054576;28;21148;-76
2022/04/03 07:49:12;;;;;;;0.50;0.30;;;26.10;37.70;;;;;;5053872;28;20445;-76
2022/04/03 07:51:39;;;;;;;0.50;0.30;;;26.30;37.50;;;;;;5054424;28;20842;-75
2022/04/03 07:54:06;;;;;;;0.50;0.40;;;26.10;37.10;;;;;;5054865;28;20444;-76
2022/04/03 07:56:32;;;;;;;1.00;0.90;;;25.50;36.30;;;;;;5054462;28;20441;-75
2022/04/03 07:58:59;;;;;;;0.50;0.30;;;24.00;36.40;;;;;;5053550;28;20448;-75
2022/04/03 08:01:28;;;;;;;0.50;0.40;;;22.70;37.10;;;;;;5054061;28;20540;-76
2022/04/03 08:03:54;;;;;;;0.50;0.30;;;22.60;39.00;;;;;;5054446;28;20445;-76
2022/04/03 08:06:21;;;;;;;0.50;0.37;;;21.90;38.00;;;;;;5054217;28;20437;-76
2022/04/03 08:08:48;;;;;;;0.50;0.30;;;21.80;39.00;;;;;;5053502;28;20475;-74
2022/04/03 08:11:14;;;;;;;0.50;0.40;;;21.50;40.10;;;;;;5053804;28;20472;-76
2022/04/03 08:13:41;;;;;;;0.50;0.30;;;22.10;39.70;;;;;;5054094;28;20452;-76
2022/04/03 08:16:08;;;;;;;0.50;0.40;;;22.40;38.50;;;;;;5054444;28;20437;-76
2022/04/03 08:18:36;;;;;;;0.50;0.40;;;21.90;37.70;;;;;;5054356;28;20798;-74
2022/04/03 08:21:03;;;;;;;0.50;0.30;;;20.50;38.80;;;;;;5053505;28;20449;-76
2022/04/03 08:23:30;;;;;;;0.50;0.30;;;19.60;39.40;;;;;;5054218;28;20445;-76
2022/04/03 08:25:56;;;;;;;0.50;0.40;;;18.80;40.50;;;;;;5053953;28;20449;-76
2022/04/03 08:28:23;;;;;;;0.50;0.30;;;18.80;41.50;;;;;;5053928;28;20445;-75
2022/04/03 08:30:50;;;;;;;0.60;0.50;;;18.10;40.80;;;;;;5053085;28;20480;-76
2022/04/03 08:33:17;;;;;;;0.60;0.50;;;17.00;40.80;;;;;;5052872;28;20452;-77
2022/04/03 08:35:46;;;;;;;0.50;0.40;;;15.90;42.10;;;;;;5053753;28;20452;-76
2022/04/03 08:38:13;;;;;;;0.50;0.40;;;15.20;43.20;;;;;;5053860;28;20441;-76
2022/04/03 08:40:44;;;;;;;0.50;0.40;;;14.30;44.50;;;;;;5053247;28;20578;-76
2022/04/03 08:43:10;;;;;;;0.50;0.40;;;13.80;45.70;;;;;;5053755;28;20424;-76
2022/04/03 08:45:37;;;;;;;0.50;0.40;;;12.90;46.50;;;;;;5053168;28;20445;-76
2022/04/03 08:48:04;;;;;;;0.50;0.40;;;12.30;46.80;;;;;;5054042;28;20444;-76
2022/04/03 08:50:34;;;;;;;0.50;0.40;;;11.60;48.10;;;;;;5052840;28;20482;-75
2022/04/03 08:53:04;;;;;;;0.50;0.40;;;10.90;49.10;;;;;;5053533;28;20202;-75
2022/04/03 08:55:31;;;;;;;0.50;0.50;;;10.40;50.20;;;;;;5053330;28;20209;-74
2022/04/03 08:57:58;;;;;;;0.60;0.50;;;9.70;52.20;;;;;;5052936;28;20194;-76
2022/04/03 09:00:25;;;;;;;0.50;0.40;;;9.30;53.50;;;;;;5052351;28;20227;-75
2022/04/03 09:02:52;;;;;;;0.50;0.40;;;8.70;54.30;;;;;;5053695;28;20204;-76
2022/04/03 09:05:19;;;;;;;0.50;0.40;;;8.50;55.30;;;;;;5087939;23;20225;-84
2022/04/03 09:08:00;;;;;;;0.50;0.40;;;8.20;56.10;;;;;;5077908;28;20203;-83
2022/04/03 09:10:29;;;;;;;0.50;0.40;;;8.10;57.20;;;;;;5088420;28;20233;-82
2022/04/03 09:12:55;;;;;;;0.50;0.50;;;7.90;57.70;;;;;;5094324;28;20221;-82
2022/04/03 09:15:23;;;;;;;0.50;0.40;;;7.70;58.00;;;;;;5094338;28;20214;-81
2022/04/03 09:17:52;;;;;;;0.50;0.50;;;7.50;58.30;;;;;;5085142;28;20206;-83
2022/04/03 09:20:22;;;;;;;0.50;0.50;;;7.20;59.10;;;;;;5076126;28;20201;-84
2022/04/03 09:22:51;;;;;;;0.50;0.50;;;7.00;60.50;;;;;;5078680;28;20206;-83
2022/04/03 09:25:24;;;;;;;0.50;0.40;;;6.80;60.80;;;;;;5077366;28;20214;-84
2022/04/03 09:27:54;;;;;;;0.50;0.50;;;6.60;61.80;;;;;;5077604;28;20174;-84
2022/04/03 09:30:23;;;;;;;0.82;0.75;;;6.40;61.70;;;;;;5075733;28;20186;-84
2022/04/03 09:32:51;;;;;;;0.50;0.40;;;6.40;62.10;;;;;;5076038;28;20614;-82
2022/04/03 09:35:20;;;;;;;0.50;0.40;;;6.20;63.20;;;;;;5086907;28;20217;-82
2022/04/03 09:38:10;;;;;;;0.50;0.40;;;6.10;62.50;;;;;;5091236;28;20202;-82
2022/04/03 09:40:38;;;;;;;0.50;0.40;;;6.00;65.00;;;;;;5089968;28;20181;-83
2022/04/03 09:43:19;;;;;;;0.50;0.40;;;6.00;67.30;;;;;;5092001;28;20194;-83
2022/04/03 09:45:48;;;;;;;0.50;0.40;;;6.10;67.80;;;;;;5094299;28;20222;-82
2022/04/03 09:48:25;;;;;;;0.50;0.40;;;6.20;67.70;;;;;;5092297;28;20197;-83
2022/04/03 09:51:02;;;;;;;0.50;0.40;;;6.30;67.80;;;;;;5091855;28;20196;-81
2022/04/03 09:53:29;;;;;;;0.50;0.40;;;6.50;67.80;;;;;;5094311;28;20181;-82
2022/04/03 09:55:56;;;;;;;0.50;0.40;;;6.40;68.10;;;;;;5084405;28;20221;-85
2022/04/03 09:58:25;;;;;;;0.50;0.40;;;6.50;68.50;;;;;;5079304;28;20207;-84
2022/04/03 10:00:51;;;;;;;0.50;0.40;;;6.50;68.90;;;;;;5082755;28;20190;-84
2022/04/03 10:03:19;;;;;;;0.50;0.40;;;6.50;71.20;;;;;;5085649;28;20363;-85
2022/04/03 10:05:46;;;;;;;0.50;0.40;;;6.60;71.20;;;;;;5081394;28;20218;-85
2022/04/03 10:08:14;;;;;;;0.50;0.40;;;6.70;70.40;;;;;;5075926;28;20208;-85
2022/04/03 10:10:41;;;;;;;0.50;0.40;;;6.90;75.90;;;;;;5076355;28;20210;-85
2022/04/03 10:13:10;;;;;;;1.40;1.30;;;7.30;73.50;;;;;;5075517;28;20198;-84
2022/04/03 10:15:38;;;;;;;0.50;0.40;;;7.90;71.60;;;;;;5076436;28;20517;-85
2022/04/03 10:18:06;;;;;;;0.50;0.40;;;8.70;72.40;;;;;;5075915;28;20507;-85
2022/04/03 10:20:37;;;;;;;0.50;0.40;;;10.00;68.60;;;;;;5075651;28;20213;-85
2022/04/03 10:23:08;;;;;;;0.50;0.40;;;11.30;67.60;;;;;;5075857;28;20233;-84
2022/04/03 10:25:38;;;;;;;0.50;0.40;;;12.80;59.50;;;;;;5075620;28;20220;-85
2022/04/03 10:28:07;;;;;;;0.50;0.40;;;14.60;59.20;;;;;;5076523;28;20440;-85
2022/04/03 10:30:42;;;;;;;0.50;0.40;;;16.60;56.90;;;;;;5075932;28;20439;-85
2022/04/03 10:33:18;;;;;;;0.50;0.30;;;18.60;54.00;;;;;;5075563;28;20427;-85
2022/04/03 10:35:48;;;;;;;0.50;0.40;;;19.70;51.80;;;;;;5075379;28;20455;-85
2022/04/03 10:38:15;;;;;;;6.00;0.70;;;20.20;46.70;;;;;;5076222;28;20918;-86
2022/04/03 10:40:58;;;;;;;0.60;0.50;;;20.70;45.00;;;;;;5075946;28;20440;-83
2022/04/03 10:43:28;;;;;;;0.50;0.30;;;18.70;45.70;;;;;;5075817;28;20420;-85
2022/04/03 10:45:57;;;;;;;0.50;0.40;;;19.00;46.90;;;;;;5075957;28;20625;-84
2022/04/03 10:48:28;;;;;;;0.50;0.40;;;18.20;46.90;;;;;;5075129;28;20440;-84
2022/04/03 10:51:07;;;;;;;0.70;0.50;;;19.30;50.30;;;;;;5075695;28;20467;-85
2022/04/03 10:53:37;;;;;;;0.50;0.30;;;19.50;47.80;;;;;;5076276;28;20420;-85
2022/04/03 10:56:09;;;;;;;0.50;0.30;;;19.40;47.40;;;;;;5077610;28;21009;-84
2022/04/03 10:58:44;;;;;;;0.50;0.30;;;19.40;47.70;;;;;;5075356;28;20420;-83
2022/04/03 11:01:24;;;;;;;0.60;0.47;;;20.40;48.90;;;;;;5076082;28;20898;-84
2022/04/03 11:03:58;;;;;;;0.60;0.60;;;19.80;46.70;;;;;;5075260;28;20424;-83
2022/04/03 11:06:30;;;;;;;0.50;0.30;;;20.00;44.10;;;;;;5076062;28;20432;-84
2022/04/03 11:09:21;;;;;;;0.70;0.60;;;19.50;45.00;;;;;;5074873;28;20782;-81
2022/04/03 11:11:56;;;;;;;0.50;0.30;;;18.00;45.40;;;;;;5075113;28;20465;-83
2022/04/03 11:14:56;;;;;;;0.50;0.40;;;18.30;46.90;;;;;;5075364;28;20451;-85
2022/04/03 11:17:53;;;;;;;0.50;0.40;;;17.60;46.50;;;;;;5076314;28;20481;-85
2022/04/03 11:20:47;;;;;;;0.50;0.30;;;17.90;47.70;;;;;;5074820;28;20455;-85
2022/04/03 11:23:17;;;;;;;0.50;0.30;;;18.80;48.90;;;;;;5075142;28;20432;-85
2022/04/03 11:25:44;;;;;;;1.57;1.47;;;19.00;46.00;;;;;;5075234;28;20833;-85
2022/04/03 11:28:11;;;;;;;0.70;0.50;;;18.60;46.20;;;;;;5074593;28;20432;-84
2022/04/03 11:30:38;;;;;;;0.50;0.40;;;17.40;47.00;;;;;;5074679;28;20820;-85
2022/04/03 11:33:07;;;;;;;0.50;0.40;;;15.90;48.90;;;;;;5073180;28;21137;-85
2022/04/03 11:35:36;;;;;;;0.50;0.40;;;15.30;50.10;;;;;;5074841;28;20451;-84
2022/04/03 11:38:02;;;;;;;0.60;0.50;;;14.90;50.10;;;;;;5075548;28;20472;-84
2022/04/03 11:40:30;;;;;;;0.60;0.60;;;14.10;50.30;;;;;;5074615;28;20443;-84
2022/04/03 11:43:14;;;;;;;0.50;0.40;;;13.60;51.20;;;;;;5074820;28;20838;-84
2022/04/03 11:45:40;;;;;;;0.50;0.40;;;13.30;52.20;;;;;;5074556;28;20455;-82
2022/04/03 11:48:20;;;;;;;0.50;0.40;;;13.50;53.30;;;;;;5074967;28;20531;-84
2022/04/03 11:50:48;;;;;;;0.50;0.40;;;13.80;53.60;;;;;;5074863;28;20421;-83
2022/04/03 11:53:15;;;;;;;0.50;0.40;;;14.60;53.90;;;;;;5075238;28;20468;-85
2022/04/03 11:55:42;;;;;;;0.50;0.40;;;15.10;51.90;;;;;;5074371;28;20464;-83
2022/04/03 11:58:08;;;;;;;0.50;0.40;;;15.20;51.70;;;;;;5075364;28;20978;-85
2022/04/03 12:00:44;;;;;;;0.50;0.30;;;15.30;50.90;;;;;;5075032;28;20451;-85
2022/04/03 12:03:10;;;;;;;1.47;1.37;;;15.30;51.80;;;;;;5075652;28;20529;-85
2022/04/03 12:05:41;;;;;;;0.50;0.40;;;15.40;51.00;;;;;;5078227;28;20474;-84
2022/04/03 12:08:08;;;;;;;0.50;0.40;;;15.40;51.80;;;;;;5077891;28;20853;-84
2022/04/03 12:10:34;;;;;;;0.80;0.77;;;15.30;50.30;;;;;;5077514;28;20942;-85
2022/04/03 12:13:07;;;;;;;1.20;1.10;;;14.70;49.80;;;;;;5078803;28;20473;-85
2022/04/03 12:15:37;;;;;;;0.50;0.40;;;14.00;50.40;;;;;;5078934;28;20465;-85
2022/04/03 12:18:04;;;;;;;0.50;0.40;;;13.50;51.20;;;;;;5078369;28;20435;-83
2022/04/03 12:20:36;;;;;;;0.50;0.40;;;13.10;51.90;;;;;;5076725;28;20432;-84
2022/04/03 12:23:08;;;;;;;0.70;0.70;;;12.70;53.50;;;;;;5078497;28;20436;-84
2022/04/03 12:25:35;;;;;;;0.50;0.40;;;12.20;54.50;;;;;;5076886;28;20784;-84
2022/04/03 12:28:02;;;;;;;1.45;1.35;;;11.90;54.80;;;;;;5077547;28;20190;-84
2022/04/03 12:30:31;;;;;;;0.50;0.40;;;11.10;55.20;;;;;;5076418;28;20559;-83
2022/04/03 12:32:58;;;;;;;0.50;0.40;;;10.80;56.80;;;;;;5076686;28;20209;-84
2022/04/03 12:35:26;;;;;;;0.50;0.40;;;10.20;57.90;;;;;;5078445;28;20226;-84
2022/04/03 12:37:53;;;;;;;0.50;0.40;;;9.80;60.40;;;;;;5078116;28;20544;-84
2022/04/03 12:40:23;;;;;;;0.50;0.40;;;9.60;61.80;;;;;;5077247;28;20255;-84
2022/04/03 12:42:50;;;;;;;0.50;0.50;;;9.50;62.40;;;;;;5078006;28;20238;-84
2022/04/03 12:45:18;;;;;;;0.50;0.40;;;9.20;62.90;;;;;;5078362;28;20217;-84
2022/04/03 12:47:47;;;;;;;0.50;0.40;;;8.90;64.30;;;;;;5078211;28;20291;-84
2022/04/03 12:50:19;;;;;;;0.50;0.40;;;8.80;65.10;;;;;;5077423;28;20196;-84
2022/04/03 12:52:51;;;;;;;0.50;0.40;;;8.60;65.90;;;;;;5077611;28;20207;-84
2022/04/03 12:55:41;;;;;;;0.60;0.60;;;8.40;68.80;;;;;;5077818;28;20211;-83